sensor_id;sensor_type;location;lat;lon;timestamp;P1;durP1;ratioP1;P2;durP2;ratioP2
54929;SDS011;40833;53.238;6.576;2023-04-06T00:01:38;9.03;;;7.53;;
54929;SDS011;40833;53.238;6.576;2023-04-06T00:04:04;11.17;;;8.00;;
54929;SDS011;40833;53.238;6.576;2023-04-06T00:06:31;12.43;;;7.47;;
54929;SDS011;40833;53.238;6.576;2023-04-06T00:08:57;15.00;;;7.67;;
54929;SDS011;40833;53.238;6.576;2023-04-06T00:11:24;12.17;;;7.40;;
54929;SDS011;40833;53.238;6.576;2023-04-06T00:13:50;14.47;;;7.60;;
54929;SDS011;40833;53.238;6.576;2023-04-06T00:16:16;9.60;;;7.57;;
54929;SDS011;40833;53.238;6.576;2023-04-06T00:18:41;12.40;;;7.80;;
54929;SDS011;40833;53.238;6.576;2023-04-06T00:21:07;14.70;;;7.60;;
54929;SDS011;40833;53.238;6.576;2023-04-06T00:23:33;13.63;;;7.73;;
54929;SDS011;40833;53.238;6.576;2023-04-06T00:26:00;11.53;;;7.17;;
54929;SDS011;40833;53.238;6.576;2023-04-06T00:28:26;14.67;;;8.27;;
54929;SDS011;40833;53.238;6.576;2023-04-06T00:30:53;10.80;;;7.83;;
54929;SDS011;40833;53.238;6.576;2023-04-06T00:33:20;12.27;;;8.03;;
54929;SDS011;40833;53.238;6.576;2023-04-06T00:35:46;16.13;;;8.13;;
54929;SDS011;40833;53.238;6.576;2023-04-06T00:38:13;11.97;;;7.73;;
54929;SDS011;40833;53.238;6.576;2023-04-06T00:40:40;11.70;;;8.10;;
54929;SDS011;40833;53.238;6.576;2023-04-06T00:43:06;10.60;;;7.87;;
54929;SDS011;40833;53.238;6.576;2023-04-06T00:45:32;11.63;;;7.87;;
54929;SDS011;40833;53.238;6.576;2023-04-06T00:47:58;12.37;;;8.30;;
54929;SDS011;40833;53.238;6.576;2023-04-06T00:50:25;10.90;;;8.20;;
54929;SDS011;40833;53.238;6.576;2023-04-06T00:52:51;15.10;;;9.03;;
54929;SDS011;40833;53.238;6.576;2023-04-06T00:55:18;14.33;;;8.77;;
54929;SDS011;40833;53.238;6.576;2023-04-06T00:57:44;12.40;;;7.93;;
54929;SDS011;40833;53.238;6.576;2023-04-06T01:00:10;17.27;;;8.90;;
54929;SDS011;40833;53.238;6.576;2023-04-06T01:02:37;11.93;;;8.17;;
54929;SDS011;40833;53.238;6.576;2023-04-06T01:05:04;16.37;;;8.87;;
54929;SDS011;40833;53.238;6.576;2023-04-06T01:07:30;15.90;;;8.63;;
54929;SDS011;40833;53.238;6.576;2023-04-06T01:09:56;10.80;;;8.37;;
54929;SDS011;40833;53.238;6.576;2023-04-06T01:12:22;11.50;;;8.57;;
54929;SDS011;40833;53.238;6.576;2023-04-06T01:14:48;15.53;;;9.07;;
54929;SDS011;40833;53.238;6.576;2023-04-06T01:17:14;11.57;;;8.27;;
54929;SDS011;40833;53.238;6.576;2023-04-06T01:19:40;11.80;;;8.53;;
54929;SDS011;40833;53.238;6.576;2023-04-06T01:22:06;10.40;;;8.10;;
54929;SDS011;40833;53.238;6.576;2023-04-06T01:24:33;12.60;;;8.60;;
54929;SDS011;40833;53.238;6.576;2023-04-06T01:26:58;12.43;;;8.50;;
54929;SDS011;40833;53.238;6.576;2023-04-06T01:29:25;16.37;;;8.80;;
54929;SDS011;40833;53.238;6.576;2023-04-06T01:31:51;17.87;;;9.47;;
54929;SDS011;40833;53.238;6.576;2023-04-06T01:34:17;10.57;;;8.00;;
54929;SDS011;40833;53.238;6.576;2023-04-06T01:36:43;15.40;;;9.03;;
54929;SDS011;40833;53.238;6.576;2023-04-06T01:39:08;13.77;;;9.63;;
54929;SDS011;40833;53.238;6.576;2023-04-06T01:41:34;13.33;;;8.73;;
54929;SDS011;40833;53.238;6.576;2023-04-06T01:44:01;13.47;;;8.63;;
54929;SDS011;40833;53.238;6.576;2023-04-06T01:46:27;16.33;;;9.43;;
54929;SDS011;40833;53.238;6.576;2023-04-06T01:48:52;16.13;;;9.30;;
54929;SDS011;40833;53.238;6.576;2023-04-06T01:51:18;14.50;;;9.60;;
54929;SDS011;40833;53.238;6.576;2023-04-06T01:53:44;13.10;;;9.50;;
54929;SDS011;40833;53.238;6.576;2023-04-06T01:56:10;14.93;;;9.67;;
54929;SDS011;40833;53.238;6.576;2023-04-06T01:58:36;14.63;;;9.50;;
54929;SDS011;40833;53.238;6.576;2023-04-06T02:01:01;15.77;;;10.43;;
54929;SDS011;40833;53.238;6.576;2023-04-06T02:03:27;14.87;;;9.17;;
54929;SDS011;40833;53.238;6.576;2023-04-06T02:05:53;12.73;;;9.93;;
54929;SDS011;40833;53.238;6.576;2023-04-06T02:08:19;15.93;;;10.07;;
54929;SDS011;40833;53.238;6.576;2023-04-06T02:10:45;14.90;;;9.67;;
54929;SDS011;40833;53.238;6.576;2023-04-06T02:13:11;13.80;;;9.23;;
54929;SDS011;40833;53.238;6.576;2023-04-06T02:15:36;12.97;;;9.60;;
54929;SDS011;40833;53.238;6.576;2023-04-06T02:18:02;16.30;;;10.67;;
54929;SDS011;40833;53.238;6.576;2023-04-06T02:20:28;15.60;;;9.73;;
54929;SDS011;40833;53.238;6.576;2023-04-06T02:22:53;15.50;;;10.13;;
54929;SDS011;40833;53.238;6.576;2023-04-06T02:25:21;14.03;;;10.10;;
54929;SDS011;40833;53.238;6.576;2023-04-06T02:27:47;18.23;;;10.53;;
54929;SDS011;40833;53.238;6.576;2023-04-06T02:30:12;16.60;;;9.73;;
54929;SDS011;40833;53.238;6.576;2023-04-06T02:32:38;15.87;;;10.37;;
54929;SDS011;40833;53.238;6.576;2023-04-06T02:35:04;16.90;;;10.33;;
54929;SDS011;40833;53.238;6.576;2023-04-06T02:37:30;17.77;;;11.80;;
54929;SDS011;40833;53.238;6.576;2023-04-06T02:39:56;16.53;;;10.93;;
54929;SDS011;40833;53.238;6.576;2023-04-06T02:42:21;13.70;;;10.03;;
54929;SDS011;40833;53.238;6.576;2023-04-06T02:44:47;14.10;;;10.37;;
54929;SDS011;40833;53.238;6.576;2023-04-06T02:47:13;16.73;;;10.97;;
54929;SDS011;40833;53.238;6.576;2023-04-06T02:49:38;16.83;;;11.10;;
54929;SDS011;40833;53.238;6.576;2023-04-06T02:52:04;17.07;;;10.97;;
54929;SDS011;40833;53.238;6.576;2023-04-06T02:54:30;15.70;;;11.10;;
54929;SDS011;40833;53.238;6.576;2023-04-06T02:56:56;22.43;;;10.43;;
54929;SDS011;40833;53.238;6.576;2023-04-06T02:59:22;17.37;;;11.17;;
54929;SDS011;40833;53.238;6.576;2023-04-06T03:01:47;18.00;;;10.13;;
54929;SDS011;40833;53.238;6.576;2023-04-06T03:04:13;15.73;;;10.17;;
54929;SDS011;40833;53.238;6.576;2023-04-06T03:06:39;15.23;;;10.27;;
54929;SDS011;40833;53.238;6.576;2023-04-06T03:09:05;19.00;;;11.23;;
54929;SDS011;40833;53.238;6.576;2023-04-06T03:11:31;18.73;;;12.33;;
54929;SDS011;40833;53.238;6.576;2023-04-06T03:13:57;24.03;;;11.53;;
54929;SDS011;40833;53.238;6.576;2023-04-06T03:16:22;15.83;;;10.17;;
54929;SDS011;40833;53.238;6.576;2023-04-06T03:18:48;15.33;;;9.53;;
54929;SDS011;40833;53.238;6.576;2023-04-06T03:21:14;13.13;;;10.07;;
54929;SDS011;40833;53.238;6.576;2023-04-06T03:23:44;13.23;;;9.77;;
54929;SDS011;40833;53.238;6.576;2023-04-06T03:26:10;17.70;;;10.47;;
54929;SDS011;40833;53.238;6.576;2023-04-06T03:28:36;13.87;;;10.17;;
54929;SDS011;40833;53.238;6.576;2023-04-06T03:31:01;17.43;;;10.37;;
54929;SDS011;40833;53.238;6.576;2023-04-06T03:33:27;14.13;;;10.33;;
54929;SDS011;40833;53.238;6.576;2023-04-06T03:35:53;17.47;;;10.73;;
54929;SDS011;40833;53.238;6.576;2023-04-06T03:38:19;16.80;;;11.13;;
54929;SDS011;40833;53.238;6.576;2023-04-06T03:40:45;17.20;;;10.67;;
54929;SDS011;40833;53.238;6.576;2023-04-06T03:43:11;14.63;;;10.53;;
54929;SDS011;40833;53.238;6.576;2023-04-06T03:45:37;11.90;;;9.67;;
54929;SDS011;40833;53.238;6.576;2023-04-06T03:48:03;19.37;;;10.57;;
54929;SDS011;40833;53.238;6.576;2023-04-06T03:50:28;16.10;;;10.00;;
54929;SDS011;40833;53.238;6.576;2023-04-06T03:52:54;14.43;;;9.90;;
54929;SDS011;40833;53.238;6.576;2023-04-06T03:55:20;14.67;;;10.10;;
54929;SDS011;40833;53.238;6.576;2023-04-06T03:57:46;14.47;;;10.17;;
54929;SDS011;40833;53.238;6.576;2023-04-06T04:00:12;15.10;;;10.23;;
54929;SDS011;40833;53.238;6.576;2023-04-06T04:02:38;13.00;;;9.07;;
54929;SDS011;40833;53.238;6.576;2023-04-06T04:05:04;14.03;;;10.43;;
54929;SDS011;40833;53.238;6.576;2023-04-06T04:07:29;16.27;;;10.60;;
54929;SDS011;40833;53.238;6.576;2023-04-06T04:09:55;16.67;;;10.00;;
54929;SDS011;40833;53.238;6.576;2023-04-06T04:12:21;14.00;;;9.80;;
54929;SDS011;40833;53.238;6.576;2023-04-06T04:14:47;13.10;;;9.40;;
54929;SDS011;40833;53.238;6.576;2023-04-06T04:17:12;16.30;;;10.43;;
54929;SDS011;40833;53.238;6.576;2023-04-06T04:19:38;14.27;;;9.57;;
54929;SDS011;40833;53.238;6.576;2023-04-06T04:22:04;16.83;;;10.60;;
54929;SDS011;40833;53.238;6.576;2023-04-06T04:24:30;14.57;;;10.10;;
54929;SDS011;40833;53.238;6.576;2023-04-06T04:26:56;13.37;;;9.70;;
54929;SDS011;40833;53.238;6.576;2023-04-06T04:29:22;18.23;;;10.07;;
54929;SDS011;40833;53.238;6.576;2023-04-06T04:31:48;12.87;;;9.63;;
54929;SDS011;40833;53.238;6.576;2023-04-06T04:34:15;13.03;;;9.67;;
54929;SDS011;40833;53.238;6.576;2023-04-06T04:36:41;14.87;;;10.13;;
54929;SDS011;40833;53.238;6.576;2023-04-06T04:39:10;15.57;;;10.33;;
54929;SDS011;40833;53.238;6.576;2023-04-06T04:41:35;12.70;;;9.90;;
54929;SDS011;40833;53.238;6.576;2023-04-06T04:44:01;13.47;;;9.83;;
54929;SDS011;40833;53.238;6.576;2023-04-06T04:46:27;14.63;;;10.20;;
54929;SDS011;40833;53.238;6.576;2023-04-06T04:48:53;13.37;;;9.90;;
54929;SDS011;40833;53.238;6.576;2023-04-06T04:51:18;14.17;;;10.07;;
54929;SDS011;40833;53.238;6.576;2023-04-06T04:53:45;16.23;;;9.93;;
54929;SDS011;40833;53.238;6.576;2023-04-06T04:56:10;14.17;;;9.53;;
54929;SDS011;40833;53.238;6.576;2023-04-06T04:58:36;15.03;;;10.60;;
54929;SDS011;40833;53.238;6.576;2023-04-06T05:01:02;13.40;;;10.37;;
54929;SDS011;40833;53.238;6.576;2023-04-06T05:03:27;15.37;;;10.33;;
54929;SDS011;40833;53.238;6.576;2023-04-06T05:05:53;17.30;;;9.20;;
54929;SDS011;40833;53.238;6.576;2023-04-06T05:08:19;20.77;;;9.47;;
54929;SDS011;40833;53.238;6.576;2023-04-06T05:10:45;13.50;;;9.13;;
54929;SDS011;40833;53.238;6.576;2023-04-06T05:13:11;19.90;;;9.30;;
54929;SDS011;40833;53.238;6.576;2023-04-06T05:15:37;13.57;;;8.73;;
54929;SDS011;40833;53.238;6.576;2023-04-06T05:18:07;14.27;;;8.70;;
54929;SDS011;40833;53.238;6.576;2023-04-06T05:20:34;15.37;;;8.70;;
54929;SDS011;40833;53.238;6.576;2023-04-06T05:23:00;19.03;;;9.07;;
54929;SDS011;40833;53.238;6.576;2023-04-06T05:25:26;14.30;;;9.13;;
54929;SDS011;40833;53.238;6.576;2023-04-06T05:27:52;18.90;;;10.23;;
54929;SDS011;40833;53.238;6.576;2023-04-06T05:30:18;14.30;;;8.80;;
54929;SDS011;40833;53.238;6.576;2023-04-06T05:32:45;13.87;;;9.03;;
54929;SDS011;40833;53.238;6.576;2023-04-06T05:35:11;14.13;;;8.80;;
54929;SDS011;40833;53.238;6.576;2023-04-06T05:37:38;12.43;;;8.37;;
54929;SDS011;40833;53.238;6.576;2023-04-06T05:40:04;13.57;;;8.63;;
54929;SDS011;40833;53.238;6.576;2023-04-06T05:42:41;12.77;;;8.57;;
54929;SDS011;40833;53.238;6.576;2023-04-06T05:45:10;13.10;;;8.73;;
54929;SDS011;40833;53.238;6.576;2023-04-06T05:47:41;17.77;;;9.47;;
54929;SDS011;40833;53.238;6.576;2023-04-06T05:50:09;13.03;;;8.90;;
54929;SDS011;40833;53.238;6.576;2023-04-06T05:52:35;16.43;;;9.13;;
54929;SDS011;40833;53.238;6.576;2023-04-06T05:55:01;15.27;;;10.37;;
54929;SDS011;40833;53.238;6.576;2023-04-06T05:57:28;14.70;;;9.10;;
54929;SDS011;40833;53.238;6.576;2023-04-06T05:59:53;17.47;;;9.00;;
54929;SDS011;40833;53.238;6.576;2023-04-06T06:02:20;15.03;;;8.67;;
54929;SDS011;40833;53.238;6.576;2023-04-06T06:04:46;13.23;;;9.00;;
54929;SDS011;40833;53.238;6.576;2023-04-06T06:07:13;13.10;;;9.17;;
54929;SDS011;40833;53.238;6.576;2023-04-06T06:09:39;17.43;;;8.80;;
54929;SDS011;40833;53.238;6.576;2023-04-06T06:12:05;12.47;;;9.27;;
54929;SDS011;40833;53.238;6.576;2023-04-06T06:14:31;15.03;;;8.63;;
54929;SDS011;40833;53.238;6.576;2023-04-06T06:16:56;16.30;;;9.07;;
54929;SDS011;40833;53.238;6.576;2023-04-06T06:19:22;11.57;;;8.70;;
54929;SDS011;40833;53.238;6.576;2023-04-06T06:21:48;16.87;;;8.77;;
54929;SDS011;40833;53.238;6.576;2023-04-06T06:24:13;15.40;;;8.47;;
54929;SDS011;40833;53.238;6.576;2023-04-06T06:26:39;15.40;;;8.93;;
54929;SDS011;40833;53.238;6.576;2023-04-06T06:29:06;11.70;;;8.97;;
54929;SDS011;40833;53.238;6.576;2023-04-06T06:31:32;12.87;;;8.73;;
54929;SDS011;40833;53.238;6.576;2023-04-06T06:33:58;16.03;;;8.40;;
54929;SDS011;40833;53.238;6.576;2023-04-06T06:36:25;19.53;;;8.43;;
54929;SDS011;40833;53.238;6.576;2023-04-06T06:38:50;11.77;;;9.23;;
54929;SDS011;40833;53.238;6.576;2023-04-06T06:41:17;15.63;;;9.20;;
54929;SDS011;40833;53.238;6.576;2023-04-06T06:43:43;13.00;;;8.93;;
54929;SDS011;40833;53.238;6.576;2023-04-06T06:46:09;16.43;;;10.27;;
54929;SDS011;40833;53.238;6.576;2023-04-06T06:48:35;15.17;;;8.87;;
54929;SDS011;40833;53.238;6.576;2023-04-06T06:51:01;14.23;;;9.07;;
54929;SDS011;40833;53.238;6.576;2023-04-06T06:53:28;12.70;;;8.70;;
54929;SDS011;40833;53.238;6.576;2023-04-06T06:55:54;13.97;;;8.53;;
54929;SDS011;40833;53.238;6.576;2023-04-06T06:58:21;13.43;;;7.87;;
54929;SDS011;40833;53.238;6.576;2023-04-06T07:00:47;15.90;;;9.57;;
54929;SDS011;40833;53.238;6.576;2023-04-06T07:03:13;16.57;;;9.40;;
54929;SDS011;40833;53.238;6.576;2023-04-06T07:05:44;15.43;;;8.10;;
54929;SDS011;40833;53.238;6.576;2023-04-06T07:08:14;19.20;;;9.27;;
54929;SDS011;40833;53.238;6.576;2023-04-06T07:10:40;15.30;;;7.97;;
54929;SDS011;40833;53.238;6.576;2023-04-06T07:13:06;16.87;;;8.33;;
54929;SDS011;40833;53.238;6.576;2023-04-06T07:15:31;13.33;;;9.33;;
54929;SDS011;40833;53.238;6.576;2023-04-06T07:17:57;11.80;;;8.27;;
54929;SDS011;40833;53.238;6.576;2023-04-06T07:20:24;12.73;;;8.70;;
54929;SDS011;40833;53.238;6.576;2023-04-06T07:22:50;10.97;;;8.63;;
54929;SDS011;40833;53.238;6.576;2023-04-06T07:25:16;14.67;;;8.60;;
54929;SDS011;40833;53.238;6.576;2023-04-06T07:27:42;11.87;;;9.00;;
54929;SDS011;40833;53.238;6.576;2023-04-06T07:30:08;13.20;;;8.43;;
54929;SDS011;40833;53.238;6.576;2023-04-06T07:32:34;10.80;;;8.50;;
54929;SDS011;40833;53.238;6.576;2023-04-06T07:35:00;10.60;;;8.60;;
54929;SDS011;40833;53.238;6.576;2023-04-06T07:37:27;14.63;;;8.77;;
54929;SDS011;40833;53.238;6.576;2023-04-06T07:39:52;11.63;;;8.23;;
54929;SDS011;40833;53.238;6.576;2023-04-06T07:42:18;14.60;;;8.23;;
54929;SDS011;40833;53.238;6.576;2023-04-06T07:44:44;13.60;;;8.00;;
54929;SDS011;40833;53.238;6.576;2023-04-06T07:47:10;16.83;;;7.90;;
54929;SDS011;40833;53.238;6.576;2023-04-06T07:49:35;15.80;;;8.73;;
54929;SDS011;40833;53.238;6.576;2023-04-06T07:52:01;13.47;;;8.30;;
54929;SDS011;40833;53.238;6.576;2023-04-06T07:54:28;12.20;;;7.73;;
54929;SDS011;40833;53.238;6.576;2023-04-06T07:56:53;10.00;;;8.43;;
54929;SDS011;40833;53.238;6.576;2023-04-06T07:59:19;11.87;;;8.40;;
54929;SDS011;40833;53.238;6.576;2023-04-06T08:01:45;15.00;;;8.13;;
54929;SDS011;40833;53.238;6.576;2023-04-06T08:04:10;9.40;;;8.30;;
54929;SDS011;40833;53.238;6.576;2023-04-06T08:06:36;14.30;;;8.47;;
54929;SDS011;40833;53.238;6.576;2023-04-06T08:09:02;10.77;;;7.67;;
54929;SDS011;40833;53.238;6.576;2023-04-06T08:11:28;14.87;;;8.87;;
54929;SDS011;40833;53.238;6.576;2023-04-06T08:13:54;14.93;;;8.97;;
54929;SDS011;40833;53.238;6.576;2023-04-06T08:16:23;18.57;;;8.20;;
54929;SDS011;40833;53.238;6.576;2023-04-06T08:18:49;11.93;;;8.43;;
54929;SDS011;40833;53.238;6.576;2023-04-06T08:21:15;14.10;;;8.50;;
54929;SDS011;40833;53.238;6.576;2023-04-06T08:23:41;11.93;;;8.33;;
54929;SDS011;40833;53.238;6.576;2023-04-06T08:26:07;10.80;;;8.13;;
54929;SDS011;40833;53.238;6.576;2023-04-06T08:28:32;14.07;;;8.93;;
54929;SDS011;40833;53.238;6.576;2023-04-06T08:31:02;12.07;;;7.60;;
54929;SDS011;40833;53.238;6.576;2023-04-06T08:33:32;16.35;;;8.80;;
54929;SDS011;40833;53.238;6.576;2023-04-06T08:36:19;15.70;;;8.40;;
54929;SDS011;40833;53.238;6.576;2023-04-06T08:38:47;11.30;;;8.07;;
54929;SDS011;40833;53.238;6.576;2023-04-06T08:41:14;14.63;;;7.50;;
54929;SDS011;40833;53.238;6.576;2023-04-06T08:43:46;17.37;;;8.60;;
54929;SDS011;40833;53.238;6.576;2023-04-06T08:46:13;15.30;;;8.47;;
54929;SDS011;40833;53.238;6.576;2023-04-06T08:48:40;14.30;;;9.07;;
54929;SDS011;40833;53.238;6.576;2023-04-06T08:51:08;20.37;;;9.10;;
54929;SDS011;40833;53.238;6.576;2023-04-06T08:53:34;10.57;;;7.33;;
54929;SDS011;40833;53.238;6.576;2023-04-06T08:56:00;11.17;;;7.93;;
54929;SDS011;40833;53.238;6.576;2023-04-06T08:58:28;13.13;;;8.37;;
54929;SDS011;40833;53.238;6.576;2023-04-06T09:00:59;11.60;;;7.40;;
54929;SDS011;40833;53.238;6.576;2023-04-06T09:03:26;12.83;;;9.00;;
54929;SDS011;40833;53.238;6.576;2023-04-06T09:05:53;13.13;;;7.57;;
54929;SDS011;40833;53.238;6.576;2023-04-06T09:08:19;11.60;;;7.83;;
54929;SDS011;40833;53.238;6.576;2023-04-06T09:10:45;10.27;;;8.23;;
54929;SDS011;40833;53.238;6.576;2023-04-06T09:13:12;15.93;;;7.97;;
54929;SDS011;40833;53.238;6.576;2023-04-06T09:15:38;11.97;;;7.20;;
54929;SDS011;40833;53.238;6.576;2023-04-06T09:18:04;12.20;;;8.10;;
54929;SDS011;40833;53.238;6.576;2023-04-06T09:20:30;12.13;;;8.10;;
54929;SDS011;40833;53.238;6.576;2023-04-06T09:22:56;9.93;;;7.80;;
54929;SDS011;40833;53.238;6.576;2023-04-06T09:25:22;11.33;;;7.60;;
54929;SDS011;40833;53.238;6.576;2023-04-06T09:28:03;14.43;;;8.20;;
54929;SDS011;40833;53.238;6.576;2023-04-06T09:30:31;16.97;;;7.73;;
54929;SDS011;40833;53.238;6.576;2023-04-06T09:32:57;11.70;;;7.80;;
54929;SDS011;40833;53.238;6.576;2023-04-06T09:35:24;10.63;;;7.33;;
54929;SDS011;40833;53.238;6.576;2023-04-06T09:37:55;10.43;;;7.47;;
54929;SDS011;40833;53.238;6.576;2023-04-06T09:40:21;11.43;;;7.77;;
54929;SDS011;40833;53.238;6.576;2023-04-06T09:42:48;12.10;;;7.93;;
54929;SDS011;40833;53.238;6.576;2023-04-06T09:45:18;12.27;;;7.87;;
54929;SDS011;40833;53.238;6.576;2023-04-06T09:47:45;11.00;;;7.80;;
54929;SDS011;40833;53.238;6.576;2023-04-06T09:50:12;11.90;;;8.67;;
54929;SDS011;40833;53.238;6.576;2023-04-06T09:52:49;15.67;;;8.90;;
54929;SDS011;40833;53.238;6.576;2023-04-06T09:55:18;14.33;;;8.40;;
54929;SDS011;40833;53.238;6.576;2023-04-06T09:58:05;16.23;;;8.33;;
54929;SDS011;40833;53.238;6.576;2023-04-06T10:01:34;16.93;;;9.03;;
54929;SDS011;40833;53.238;6.576;2023-04-06T10:06:05;13.10;;;8.90;;
54929;SDS011;40833;53.238;6.576;2023-04-06T10:08:35;13.63;;;9.00;;
54929;SDS011;40833;53.238;6.576;2023-04-06T10:11:05;12.87;;;9.37;;
54929;SDS011;40833;53.238;6.576;2023-04-06T10:13:31;13.47;;;9.10;;
54929;SDS011;40833;53.238;6.576;2023-04-06T10:15:57;13.97;;;8.53;;
54929;SDS011;40833;53.238;6.576;2023-04-06T10:18:26;17.17;;;9.07;;
54929;SDS011;40833;53.238;6.576;2023-04-06T10:24:06;15.50;;;9.40;;
54929;SDS011;40833;53.238;6.576;2023-04-06T10:26:35;13.10;;;9.20;;
54929;SDS011;40833;53.238;6.576;2023-04-06T10:29:02;13.80;;;9.63;;
54929;SDS011;40833;53.238;6.576;2023-04-06T10:31:28;12.00;;;9.77;;
54929;SDS011;40833;53.238;6.576;2023-04-06T10:33:55;16.43;;;9.90;;
54929;SDS011;40833;53.238;6.576;2023-04-06T10:36:26;13.90;;;9.50;;
54929;SDS011;40833;53.238;6.576;2023-04-06T10:38:59;14.20;;;10.10;;
54929;SDS011;40833;53.238;6.576;2023-04-06T10:47:01;18.47;;;10.37;;
54929;SDS011;40833;53.238;6.576;2023-04-06T10:49:27;15.87;;;10.97;;
54929;SDS011;40833;53.238;6.576;2023-04-06T10:51:53;18.17;;;11.07;;
54929;SDS011;40833;53.238;6.576;2023-04-06T10:54:24;20.17;;;12.20;;
54929;SDS011;40833;53.238;6.576;2023-04-06T10:56:50;23.30;;;11.53;;
54929;SDS011;40833;53.238;6.576;2023-04-06T10:59:22;16.20;;;11.60;;
54929;SDS011;40833;53.238;6.576;2023-04-06T11:01:49;16.90;;;11.87;;
54929;SDS011;40833;53.238;6.576;2023-04-06T11:04:16;18.83;;;12.53;;
54929;SDS011;40833;53.238;6.576;2023-04-06T11:06:46;20.20;;;12.47;;
54929;SDS011;40833;53.238;6.576;2023-04-06T11:09:34;19.40;;;12.40;;
54929;SDS011;40833;53.238;6.576;2023-04-06T11:12:01;18.43;;;13.07;;
54929;SDS011;40833;53.238;6.576;2023-04-06T11:14:27;18.47;;;12.27;;
54929;SDS011;40833;53.238;6.576;2023-04-06T11:16:53;20.47;;;13.20;;
54929;SDS011;40833;53.238;6.576;2023-04-06T11:19:19;23.43;;;14.10;;
54929;SDS011;40833;53.238;6.576;2023-04-06T11:21:45;26.30;;;15.53;;
54929;SDS011;40833;53.238;6.576;2023-04-06T11:29:22;33.03;;;18.97;;
54929;SDS011;40833;53.238;6.576;2023-04-06T11:31:53;32.77;;;20.23;;
54929;SDS011;40833;53.238;6.576;2023-04-06T11:34:30;32.63;;;18.77;;
54929;SDS011;40833;53.238;6.576;2023-04-06T11:36:59;30.50;;;20.40;;
54929;SDS011;40833;53.238;6.576;2023-04-06T11:39:27;32.57;;;21.50;;
54929;SDS011;40833;53.238;6.576;2023-04-06T11:41:54;29.93;;;19.83;;
54929;SDS011;40833;53.238;6.576;2023-04-06T11:44:40;35.30;;;19.83;;
54929;SDS011;40833;53.238;6.576;2023-04-06T11:47:11;29.33;;;19.83;;
54929;SDS011;40833;53.238;6.576;2023-04-06T11:49:37;30.73;;;19.27;;
54929;SDS011;40833;53.238;6.576;2023-04-06T11:52:18;29.30;;;19.63;;
54929;SDS011;40833;53.238;6.576;2023-04-06T11:54:44;30.00;;;19.73;;
54929;SDS011;40833;53.238;6.576;2023-04-06T11:57:11;28.10;;;19.90;;
54929;SDS011;40833;53.238;6.576;2023-04-06T11:59:37;29.13;;;20.07;;
54929;SDS011;40833;53.238;6.576;2023-04-06T12:02:02;37.17;;;18.60;;
54929;SDS011;40833;53.238;6.576;2023-04-06T12:04:29;30.87;;;21.23;;
54929;SDS011;40833;53.238;6.576;2023-04-06T12:06:55;27.27;;;19.97;;
54929;SDS011;40833;53.238;6.576;2023-04-06T12:09:21;31.33;;;19.90;;
54929;SDS011;40833;53.238;6.576;2023-04-06T12:11:46;27.67;;;20.93;;
54929;SDS011;40833;53.238;6.576;2023-04-06T12:14:12;28.67;;;20.07;;
54929;SDS011;40833;53.238;6.576;2023-04-06T12:16:38;27.30;;;19.53;;
54929;SDS011;40833;53.238;6.576;2023-04-06T12:19:04;31.93;;;20.07;;
54929;SDS011;40833;53.238;6.576;2023-04-06T12:21:30;30.17;;;19.73;;
54929;SDS011;40833;53.238;6.576;2023-04-06T12:23:57;25.93;;;19.17;;
54929;SDS011;40833;53.238;6.576;2023-04-06T12:26:23;30.97;;;20.13;;
54929;SDS011;40833;53.238;6.576;2023-04-06T12:28:49;30.10;;;19.30;;
54929;SDS011;40833;53.238;6.576;2023-04-06T12:31:19;29.27;;;19.90;;
54929;SDS011;40833;53.238;6.576;2023-04-06T12:33:46;28.77;;;18.60;;
54929;SDS011;40833;53.238;6.576;2023-04-06T12:36:14;32.40;;;20.63;;
54929;SDS011;40833;53.238;6.576;2023-04-06T12:38:41;30.60;;;19.63;;
54929;SDS011;40833;53.238;6.576;2023-04-06T12:41:07;27.83;;;19.30;;
54929;SDS011;40833;53.238;6.576;2023-04-06T12:43:33;28.53;;;18.80;;
54929;SDS011;40833;53.238;6.576;2023-04-06T12:45:59;30.27;;;19.43;;
54929;SDS011;40833;53.238;6.576;2023-04-06T12:48:25;26.57;;;19.40;;
54929;SDS011;40833;53.238;6.576;2023-04-06T12:50:59;27.60;;;19.70;;
54929;SDS011;40833;53.238;6.576;2023-04-06T12:53:25;28.40;;;19.30;;
54929;SDS011;40833;53.238;6.576;2023-04-06T12:55:53;29.57;;;19.67;;
54929;SDS011;40833;53.238;6.576;2023-04-06T12:58:20;26.90;;;19.57;;
54929;SDS011;40833;53.238;6.576;2023-04-06T13:00:47;30.73;;;19.40;;
54929;SDS011;40833;53.238;6.576;2023-04-06T13:03:13;28.33;;;18.80;;
54929;SDS011;40833;53.238;6.576;2023-04-06T13:05:52;27.50;;;19.47;;
54929;SDS011;40833;53.238;6.576;2023-04-06T13:08:18;26.73;;;18.87;;
54929;SDS011;40833;53.238;6.576;2023-04-06T13:10:48;27.43;;;19.73;;
54929;SDS011;40833;53.238;6.576;2023-04-06T13:13:16;30.33;;;19.40;;
54929;SDS011;40833;53.238;6.576;2023-04-06T13:15:42;31.10;;;20.93;;
54929;SDS011;40833;53.238;6.576;2023-04-06T13:18:08;30.03;;;18.93;;
54929;SDS011;40833;53.238;6.576;2023-04-06T13:20:34;25.50;;;18.50;;
54929;SDS011;40833;53.238;6.576;2023-04-06T13:23:00;30.97;;;18.93;;
54929;SDS011;40833;53.238;6.576;2023-04-06T13:25:26;27.40;;;18.87;;
54929;SDS011;40833;53.238;6.576;2023-04-06T13:27:53;35.27;;;19.60;;
54929;SDS011;40833;53.238;6.576;2023-04-06T13:30:19;26.90;;;18.37;;
54929;SDS011;40833;53.238;6.576;2023-04-06T13:32:45;27.03;;;19.40;;
54929;SDS011;40833;53.238;6.576;2023-04-06T13:35:11;26.73;;;18.63;;
54929;SDS011;40833;53.238;6.576;2023-04-06T13:37:37;26.83;;;18.30;;
54929;SDS011;40833;53.238;6.576;2023-04-06T13:40:03;27.10;;;18.20;;
54929;SDS011;40833;53.238;6.576;2023-04-06T13:42:30;28.83;;;18.90;;
54929;SDS011;40833;53.238;6.576;2023-04-06T13:44:57;25.33;;;18.40;;
54929;SDS011;40833;53.238;6.576;2023-04-06T13:47:24;33.67;;;19.13;;
54929;SDS011;40833;53.238;6.576;2023-04-06T13:49:50;29.50;;;19.00;;
54929;SDS011;40833;53.238;6.576;2023-04-06T13:52:16;27.23;;;19.50;;
54929;SDS011;40833;53.238;6.576;2023-04-06T13:54:43;31.73;;;18.40;;
54929;SDS011;40833;53.238;6.576;2023-04-06T13:57:09;29.40;;;18.77;;
54929;SDS011;40833;53.238;6.576;2023-04-06T13:59:35;27.27;;;17.10;;
54929;SDS011;40833;53.238;6.576;2023-04-06T14:02:04;24.33;;;17.63;;
54929;SDS011;40833;53.238;6.576;2023-04-06T14:04:31;21.00;;;14.73;;
54929;SDS011;40833;53.238;6.576;2023-04-06T14:06:58;24.37;;;16.10;;
54929;SDS011;40833;53.238;6.576;2023-04-06T14:09:25;24.50;;;15.93;;
54929;SDS011;40833;53.238;6.576;2023-04-06T14:11:51;23.23;;;15.87;;
54929;SDS011;40833;53.238;6.576;2023-04-06T14:14:17;21.53;;;15.47;;
54929;SDS011;40833;53.238;6.576;2023-04-06T14:16:43;20.97;;;14.83;;
54929;SDS011;40833;53.238;6.576;2023-04-06T14:19:10;19.97;;;13.63;;
54929;SDS011;40833;53.238;6.576;2023-04-06T14:21:40;16.57;;;13.07;;
54929;SDS011;40833;53.238;6.576;2023-04-06T14:24:06;22.33;;;13.73;;
54929;SDS011;40833;53.238;6.576;2023-04-06T14:26:33;17.97;;;13.17;;
54929;SDS011;40833;53.238;6.576;2023-04-06T14:29:00;17.87;;;13.80;;
54929;SDS011;40833;53.238;6.576;2023-04-06T14:31:26;18.97;;;14.17;;
54929;SDS011;40833;53.238;6.576;2023-04-06T14:33:52;22.47;;;13.10;;
54929;SDS011;40833;53.238;6.576;2023-04-06T14:36:18;18.43;;;13.33;;
54929;SDS011;40833;53.238;6.576;2023-04-06T14:38:43;17.13;;;13.90;;
54929;SDS011;40833;53.238;6.576;2023-04-06T14:41:18;18.03;;;13.50;;
54929;SDS011;40833;53.238;6.576;2023-04-06T14:43:47;26.20;;;13.60;;